createdAt,value
2022-09-10T00:01:22.802Z,95.41
2022-09-10T00:03:50.145Z,94.85
2022-09-10T00:06:18.668Z,94.81
2022-09-10T00:08:46.492Z,94.76
2022-09-10T00:11:15.041Z,94.59
2022-09-10T00:13:42.325Z,94.51
2022-09-10T00:16:11.570Z,94.45
2022-09-10T00:18:40.018Z,94.36
2022-09-10T00:21:10.305Z,94.63
2022-09-10T00:23:37.411Z,94.63
2022-09-10T00:26:28.786Z,96.54
2022-09-10T00:28:58.406Z,94.66
2022-09-10T00:31:25.175Z,94.67
2022-09-10T00:33:52.636Z,94.56
2022-09-10T00:36:24.403Z,95.42
2022-09-10T00:38:53.506Z,94.75
2022-09-10T00:41:22.473Z,94.86
2022-09-10T00:43:54.247Z,95.88
2022-09-10T00:46:27.835Z,95.59
2022-09-10T00:48:56.656Z,95.14
2022-09-10T00:51:26.193Z,95.02
2022-09-10T00:53:53.654Z,94.82
2022-09-10T00:56:20.050Z,94.63
2022-09-10T00:58:48.383Z,94.63
2022-09-10T01:01:16.180Z,94.40
2022-09-10T01:03:44.143Z,94.58
2022-09-10T01:06:10.995Z,94.31
2022-09-10T01:08:37.838Z,94.36
2022-09-10T01:11:11.743Z,95.54
2022-09-10T01:13:50.993Z,94.66
2022-09-10T01:16:36.183Z,94.20
2022-09-10T01:19:47.684Z,96.08
2022-09-10T01:22:51.086Z,95.94
2022-09-10T01:25:46.254Z,96.35
2022-09-10T01:28:24.093Z,95.17
2022-09-10T01:30:56.358Z,94.60
2022-09-10T01:33:34.026Z,95.10
2022-09-10T01:36:05.172Z,94.64
2022-09-10T01:38:35.499Z,94.71
2022-09-10T01:41:02.252Z,94.79
2022-09-10T01:43:29.019Z,94.57
2022-09-10T01:46:10.363Z,94.71
2022-09-10T01:48:55.183Z,95.86
2022-09-10T01:51:59.086Z,96.66
2022-09-10T01:54:47.025Z,95.11
2022-09-10T01:57:29.593Z,95.86
2022-09-10T02:00:09.685Z,95.40
2022-09-10T02:03:05.746Z,96.29
2022-09-10T02:05:36.273Z,94.67
2022-09-10T02:08:09.171Z,94.83
2022-09-10T02:10:49.411Z,95.88
2022-09-10T02:13:15.793Z,95.02
2022-09-10T02:15:42.321Z,93.85
2022-09-10T02:18:09.440Z,93.77
2022-09-10T02:20:35.926Z,93.78
2022-09-10T02:23:02.600Z,93.75
2022-09-10T02:25:34.164Z,94.11
2022-09-10T02:28:00.692Z,93.58
2022-09-10T02:30:27.033Z,93.68
2022-09-10T02:32:53.575Z,93.93
2022-09-10T02:35:20.736Z,93.89
2022-09-10T02:37:48.343Z,93.94
2022-09-10T02:40:14.865Z,93.93
2022-09-10T02:42:46.757Z,94.24
2022-09-10T02:45:14.314Z,94.02
2022-09-10T02:47:40.788Z,94.22
2022-09-10T02:50:08.697Z,94.37
2022-09-10T02:52:35.138Z,94.22
2022-09-10T02:55:01.755Z,94.24
2022-09-10T02:57:28.144Z,94.07
2022-09-10T02:59:56.377Z,94.45
2022-09-10T03:02:23.226Z,94.34
2022-09-10T03:04:49.631Z,94.46
2022-09-10T03:07:19.928Z,94.34
2022-09-10T03:09:47.490Z,94.14
2022-09-10T03:12:15.836Z,94.23
2022-09-10T03:14:45.171Z,94.65
2022-09-10T03:17:11.550Z,94.10
2022-09-10T03:19:40.039Z,94.04
2022-09-10T03:22:06.442Z,94.00
2022-09-10T03:24:33.069Z,94.20
2022-09-10T03:26:59.465Z,94.15
2022-09-10T03:29:26.322Z,94.37
2022-09-10T03:31:52.839Z,94.36
2022-09-10T03:34:19.274Z,94.41
2022-09-10T03:36:47.314Z,94.58
2022-09-10T03:39:18.523Z,95.42
2022-09-10T03:41:48.257Z,94.74
2022-09-10T03:44:15.035Z,94.73
2022-09-10T03:46:41.420Z,94.71
2022-09-10T03:49:08.296Z,94.62
2022-09-10T03:51:35.119Z,94.71
2022-09-10T03:54:02.513Z,94.70
2022-09-10T03:56:28.926Z,94.74
2022-09-10T03:58:55.403Z,94.74
2022-09-10T04:01:21.887Z,94.59
2022-09-10T04:03:48.337Z,94.67
2022-09-10T04:06:19.128Z,94.81
2022-09-10T04:08:49.625Z,94.99
2022-09-10T04:11:16.241Z,94.59
2022-09-10T04:13:42.632Z,94.78
2022-09-10T04:16:09.780Z,94.78
2022-09-10T04:18:36.347Z,95.01
2022-09-10T04:21:02.977Z,94.99
2022-09-10T04:23:29.673Z,95.00
2022-09-10T04:25:57.057Z,95.19
2022-09-10T04:28:24.131Z,94.96
2022-09-10T04:30:51.172Z,95.07
2022-09-10T04:33:18.405Z,95.04
2022-09-10T04:35:45.668Z,95.25
2022-09-10T04:38:12.063Z,94.84
2022-09-10T04:40:38.667Z,94.95
2022-09-10T04:43:05.300Z,94.80
2022-09-10T04:45:34.643Z,94.73
2022-09-10T04:48:06.171Z,94.64
2022-09-10T04:50:33.330Z,94.71
2022-09-10T04:53:00.362Z,94.28
2022-09-10T04:55:26.834Z,94.42
2022-09-10T04:57:54.160Z,94.49
2022-09-10T05:00:20.608Z,94.78
2022-09-10T05:02:47.071Z,94.52
2022-09-10T05:05:13.818Z,94.90
2022-09-10T05:07:40.244Z,94.55
2022-09-10T05:10:10.359Z,94.46
2022-09-10T05:12:38.627Z,94.13
2022-09-10T05:15:06.598Z,94.40
2022-09-10T05:17:34.004Z,94.51
2022-09-10T05:20:00.474Z,94.59
2022-09-10T05:22:33.664Z,94.75
2022-09-10T05:25:03.806Z,94.95
2022-09-10T05:27:30.177Z,95.09
2022-09-10T05:29:57.507Z,95.01
2022-09-10T05:32:24.236Z,95.36
2022-09-10T05:34:50.654Z,95.53
2022-09-10T05:37:18.601Z,95.41
2022-09-10T05:39:45.841Z,95.57
2022-09-10T05:42:12.683Z,95.94
2022-09-10T05:44:39.116Z,95.95
2022-09-10T05:47:06.578Z,96.09
2022-09-10T05:49:33.190Z,96.09
2022-09-10T05:51:59.558Z,96.58
2022-09-10T05:54:25.996Z,96.53
2022-09-10T05:56:52.371Z,96.62
2022-09-10T05:59:18.769Z,96.67
2022-09-10T06:01:45.263Z,97.25
2022-09-10T06:04:11.774Z,97.33
2022-09-10T06:06:38.220Z,97.70
2022-09-10T06:09:04.585Z,98.03
2022-09-10T06:11:30.921Z,98.30
2022-09-10T06:13:58.122Z,98.43
2022-09-10T06:16:24.543Z,98.87
2022-09-10T06:18:50.922Z,98.82
2022-09-10T06:21:19.645Z,98.82
2022-09-10T06:23:46.322Z,98.59
2022-09-10T06:26:16.997Z,98.76
2022-09-10T06:28:44.534Z,99.47
2022-09-10T06:31:17.207Z,99.71
2022-09-10T06:33:49.032Z,100.00
2022-09-10T06:36:15.724Z,99.30
2022-09-10T06:38:45.325Z,98.99
2022-09-10T06:41:23.078Z,98.64
2022-09-10T06:43:58.313Z,98.18
2022-09-10T06:47:16.063Z,97.33
2022-09-10T06:49:58.430Z,98.79
2022-09-10T06:52:40.476Z,95.67
2022-09-10T06:55:14.155Z,95.73
2022-09-10T06:57:47.387Z,94.61
2022-09-10T07:00:23.778Z,94.57
2022-09-10T07:02:53.104Z,93.74
2022-09-10T07:05:28.840Z,93.89
2022-09-10T07:08:04.099Z,93.51
2022-09-10T07:10:35.544Z,93.35
2022-09-10T07:13:10.662Z,92.78
2022-09-10T07:15:46.949Z,92.71
2022-09-10T07:18:27.468Z,92.69
2022-09-10T07:21:06.626Z,91.66
2022-09-10T07:23:33.953Z,92.03
2022-09-10T07:26:17.280Z,92.39
2022-09-10T07:28:50.611Z,90.27
2022-09-10T07:31:28.411Z,88.61
2022-09-10T07:33:58.262Z,89.03
2022-09-10T07:36:34.580Z,88.42
2022-09-10T07:39:12.581Z,87.91
2022-09-10T07:41:53.982Z,86.82
2022-09-10T07:44:26.497Z,88.58
2022-09-10T07:46:56.186Z,85.10
2022-09-10T07:49:28.480Z,85.53
2022-09-10T07:52:02.691Z,84.93
2022-09-10T07:54:33.517Z,82.89
2022-09-10T07:57:47.610Z,79.48
2022-09-10T08:03:31.239Z,76.90
2022-09-10T08:06:08.803Z,75.85
2022-09-10T08:08:45.530Z,73.95
2022-09-10T08:11:47.943Z,72.75
2022-09-10T08:14:16.621Z,71.44
2022-09-10T08:16:44.645Z,71.20
2022-09-10T08:19:15.250Z,71.63
2022-09-10T08:21:42.258Z,71.42
2022-09-10T08:24:10.630Z,70.92
2022-09-10T08:26:37.967Z,71.61
2022-09-10T08:29:15.543Z,71.57
2022-09-10T08:31:42.856Z,70.39
2022-09-10T08:34:12.334Z,70.77
2022-09-10T08:36:44.782Z,70.58
2022-09-10T08:39:13.908Z,70.57
2022-09-10T08:41:50.214Z,70.77
2022-09-10T08:44:42.761Z,70.86
2022-09-10T08:47:27.213Z,69.25
2022-09-10T08:50:16.832Z,67.89
2022-09-10T08:52:51.690Z,66.95
2022-09-10T08:55:27.953Z,66.94
2022-09-10T08:58:01.354Z,67.51
2022-09-10T09:00:35.444Z,66.89
2022-09-10T09:03:21.145Z,67.09
2022-09-10T09:05:50.219Z,65.91
2022-09-10T09:08:25.197Z,67.02
2022-09-10T09:11:07.826Z,68.05
2022-09-10T09:13:41.018Z,67.88
2022-09-10T09:16:42.096Z,69.63
2022-09-10T09:19:24.040Z,68.59
2022-09-10T09:21:52.556Z,67.57
2022-09-10T09:24:28.726Z,67.54
2022-09-10T09:27:12.880Z,68.95
2022-09-10T09:29:56.184Z,67.54
2022-09-10T09:32:24.604Z,66.72
2022-09-10T09:35:28.501Z,68.25
2022-09-10T09:38:11.709Z,68.86
2022-09-10T09:40:47.468Z,68.31
2022-09-10T09:43:37.380Z,67.11
2022-09-10T09:46:16.134Z,67.65
2022-09-10T09:48:47.841Z,68.35
2022-09-10T09:51:24.333Z,67.22
2022-09-10T09:57:02.151Z,66.22
2022-09-10T09:59:37.842Z,65.04
2022-09-10T10:02:12.024Z,64.51
2022-09-10T10:05:01.166Z,64.24
2022-09-10T10:07:34.114Z,64.12
2022-09-10T10:10:05.415Z,62.15
2022-09-10T10:12:42.901Z,63.10
2022-09-10T10:15:42.913Z,63.06
2022-09-10T10:18:36.318Z,63.11
2022-09-10T10:21:30.774Z,62.06
2022-09-10T10:23:58.181Z,61.05
2022-09-10T10:26:33.061Z,60.94
2022-09-10T10:29:06.735Z,62.05
2022-09-10T10:31:45.174Z,62.59
2022-09-10T10:34:26.335Z,60.81
2022-09-10T10:37:27.675Z,63.10
2022-09-10T10:40:14.598Z,62.69
2022-09-10T10:42:59.712Z,61.99
2022-09-10T10:45:38.833Z,62.51
2022-09-10T10:48:28.364Z,62.85
2022-09-10T10:51:20.544Z,62.62
2022-09-10T10:54:20.843Z,63.21
2022-09-10T10:57:26.960Z,63.55
2022-09-10T11:00:04.297Z,63.82
2022-09-10T11:02:41.458Z,64.31
2022-09-10T11:05:38.741Z,64.78
2022-09-10T11:08:17.002Z,64.04
2022-09-10T11:11:13.817Z,62.90
2022-09-10T11:13:59.386Z,62.60
2022-09-10T11:16:33.172Z,62.46
2022-09-10T11:19:53.300Z,62.98
2022-09-10T11:22:39.618Z,61.62
2022-09-10T11:25:16.621Z,61.59
2022-09-10T11:27:49.275Z,60.56
2022-09-10T11:30:17.663Z,63.35
2022-09-10T11:32:49.824Z,63.71
2022-09-10T11:35:28.795Z,63.37
2022-09-10T11:38:13.444Z,63.04
2022-09-10T11:40:43.701Z,62.18
2022-09-10T11:43:24.054Z,61.83
2022-09-10T11:45:54.754Z,72.83
2022-09-10T11:48:28.206Z,65.64
2022-09-10T11:51:01.908Z,63.00
2022-09-10T11:53:30.478Z,61.48
2022-09-10T11:56:15.547Z,60.06
2022-09-10T11:59:03.611Z,54.82
2022-09-10T12:01:51.556Z,55.91
2022-09-10T12:04:49.172Z,54.89
2022-09-10T12:07:41.565Z,52.92
2022-09-10T12:10:20.416Z,53.45
2022-09-10T12:12:53.435Z,49.32
2022-09-10T12:15:23.113Z,47.79
2022-09-10T12:18:04.865Z,47.73
2022-09-10T12:20:38.302Z,45.98
2022-09-10T12:23:13.644Z,45.22
2022-09-10T12:25:41.839Z,44.72
2022-09-10T12:28:43.547Z,48.14
2022-09-10T12:31:11.646Z,45.42
2022-09-10T12:33:44.126Z,47.39
2022-09-10T12:36:15.445Z,47.88
2022-09-10T12:39:06.654Z,47.81
2022-09-10T12:41:34.162Z,48.11
2022-09-10T12:44:01.828Z,49.01
2022-09-10T12:46:31.275Z,49.33
2022-09-10T12:49:00.410Z,48.40
2022-09-10T12:51:33.716Z,50.28
2022-09-10T12:54:32.546Z,50.52
2022-09-10T12:57:05.245Z,50.77
2022-09-10T12:59:42.562Z,51.39
2022-09-10T13:03:08.276Z,52.52
2022-09-10T13:05:48.066Z,52.55
2022-09-10T13:08:23.012Z,53.48
2022-09-10T13:11:07.413Z,53.85
2022-09-10T13:13:42.618Z,53.42
2022-09-10T13:16:32.505Z,53.87
2022-09-10T13:19:13.844Z,54.61
2022-09-10T13:21:40.181Z,53.71
2022-09-10T13:24:34.387Z,54.96
2022-09-10T13:27:13.026Z,54.59
2022-09-10T13:29:43.392Z,56.46
2022-09-10T13:32:38.334Z,54.48
2022-09-10T13:35:07.664Z,54.64
2022-09-10T13:37:52.337Z,55.00
2022-09-10T13:41:02.557Z,55.56
2022-09-10T13:44:03.140Z,55.67
2022-09-10T13:46:35.831Z,55.24
2022-09-10T13:49:12.394Z,55.83
2022-09-10T13:51:47.692Z,56.08
2022-09-10T13:54:34.979Z,55.83
2022-09-10T13:57:13.245Z,55.60
2022-09-10T13:59:41.739Z,55.40
2022-09-10T14:02:08.305Z,54.25
2022-09-10T14:04:39.923Z,53.50
2022-09-10T14:07:20.938Z,53.34
2022-09-10T14:09:56.681Z,53.73
2022-09-10T14:12:27.533Z,54.23
2022-09-10T14:14:57.164Z,54.96
2022-09-10T14:17:29.178Z,54.71
2022-09-10T14:20:01.255Z,54.20
2022-09-10T14:22:29.127Z,54.08
2022-09-10T14:25:00.682Z,53.79
2022-09-10T14:28:53.839Z,55.65
2022-09-10T14:31:27.676Z,55.28
2022-09-10T14:33:55.845Z,55.36
2022-09-10T14:36:33.491Z,55.43
2022-09-10T14:39:06.767Z,56.10
2022-09-10T14:41:35.583Z,55.95
2022-09-10T14:44:23.929Z,56.35
2022-09-10T14:47:09.063Z,56.96
2022-09-10T14:49:38.845Z,56.82
2022-09-10T14:52:06.573Z,56.90
2022-09-10T14:54:34.429Z,57.05
2022-09-10T14:57:02.895Z,57.54
2022-09-10T14:59:36.183Z,57.87
2022-09-10T15:02:12.750Z,57.36
2022-09-10T15:04:39.168Z,57.36
2022-09-10T15:07:05.670Z,56.72
2022-09-10T15:09:32.120Z,55.41
2022-09-10T15:12:06.797Z,53.40
2022-09-10T15:14:36.678Z,52.96
2022-09-10T15:17:03.183Z,54.22
2022-09-10T15:19:29.747Z,53.32
2022-09-10T15:21:57.486Z,53.93
2022-09-10T15:24:24.757Z,54.39
2022-09-10T15:26:51.210Z,54.87
2022-09-10T15:29:20.720Z,53.91
2022-09-10T15:31:47.159Z,54.75
2022-09-10T15:34:14.252Z,54.94
2022-09-10T15:36:41.394Z,55.05
2022-09-10T15:39:11.301Z,54.96
2022-09-10T15:41:42.867Z,55.57
2022-09-10T15:44:09.838Z,54.62
2022-09-10T15:46:44.436Z,54.25
2022-09-10T15:49:12.008Z,55.86
2022-09-10T15:51:39.219Z,55.15
2022-09-10T15:54:06.249Z,55.36
2022-09-10T15:56:33.236Z,55.37
2022-09-10T15:58:59.810Z,55.85
2022-09-10T16:01:28.736Z,55.56
2022-09-10T16:03:57.717Z,55.68
2022-09-10T16:06:27.639Z,56.07
2022-09-10T16:09:00.793Z,56.10
2022-09-10T16:11:31.081Z,57.17
2022-09-10T16:14:04.517Z,57.44
2022-09-10T16:16:32.316Z,57.55
2022-09-10T16:18:59.001Z,58.85
2022-09-10T16:21:28.597Z,58.63
2022-09-10T16:23:56.974Z,58.90
2022-09-10T16:26:25.825Z,59.69
2022-09-10T16:28:54.522Z,60.44
2022-09-10T16:31:23.260Z,59.84
2022-09-10T16:33:54.642Z,60.73
2022-09-10T16:36:22.294Z,60.83
2022-09-10T16:38:53.333Z,62.67
2022-09-10T16:41:20.627Z,63.37
2022-09-10T16:43:47.227Z,64.07
2022-09-10T16:46:13.903Z,64.52
2022-09-10T16:48:45.178Z,64.77
2022-09-10T16:51:19.688Z,64.23
2022-09-10T16:53:52.275Z,65.51
2022-09-10T16:56:18.716Z,65.38
2022-09-10T16:58:48.616Z,65.86
2022-09-10T17:01:15.894Z,66.53
2022-09-10T17:03:49.567Z,67.66
2022-09-10T17:06:18.317Z,67.14
2022-09-10T17:08:45.237Z,67.48
2022-09-10T17:11:14.259Z,68.40
2022-09-10T17:13:41.357Z,69.81
2022-09-10T17:16:23.109Z,70.32
2022-09-10T17:19:01.295Z,71.04
2022-09-10T17:21:31.490Z,71.75
2022-09-10T17:23:59.595Z,72.03
2022-09-10T17:26:27.018Z,72.32
2022-09-10T17:28:54.279Z,72.92
2022-09-10T17:31:20.850Z,72.00
2022-09-10T17:33:47.290Z,73.42
2022-09-10T17:36:13.676Z,73.80
2022-09-10T17:38:40.986Z,74.06
2022-09-10T17:41:07.473Z,74.83
2022-09-10T17:43:36.480Z,74.80
2022-09-10T17:46:04.654Z,75.20
2022-09-10T17:48:31.485Z,75.31
2022-09-10T17:50:59.618Z,76.02
2022-09-10T17:53:26.369Z,76.35
2022-09-10T17:55:52.892Z,77.29
2022-09-10T17:58:19.647Z,77.29
2022-09-10T18:00:49.409Z,77.65
2022-09-10T18:03:17.666Z,77.87
2022-09-10T18:05:45.790Z,77.75
2022-09-10T18:08:12.486Z,77.93
2022-09-10T18:10:39.382Z,78.91
2022-09-10T18:13:08.104Z,79.27
2022-09-10T18:15:40.159Z,79.63
2022-09-10T18:18:06.509Z,79.88
2022-09-10T18:20:32.948Z,79.69
2022-09-10T18:22:59.598Z,80.13
2022-09-10T18:25:30.351Z,80.85
2022-09-10T18:27:58.126Z,80.80
2022-09-10T18:30:26.410Z,81.17
2022-09-10T18:32:53.287Z,81.34
2022-09-10T18:35:20.359Z,81.52
2022-09-10T18:37:49.998Z,81.75
2022-09-10T18:40:16.666Z,81.89
2022-09-10T18:42:46.590Z,81.87
2022-09-10T18:45:13.633Z,80.49
2022-09-10T18:47:45.111Z,81.44
2022-09-10T18:50:13.171Z,82.24
2022-09-10T18:52:39.722Z,82.98
2022-09-10T18:55:06.699Z,83.74
2022-09-10T18:57:33.062Z,84.02
2022-09-10T19:00:00.396Z,84.59
2022-09-10T19:02:27.338Z,85.16
2022-09-10T19:05:10.788Z,85.57
2022-09-10T19:07:38.155Z,85.70
2022-09-10T19:10:06.906Z,86.27
2022-09-10T19:12:33.500Z,86.47
2022-09-10T19:14:59.899Z,86.73
2022-09-10T19:17:26.259Z,87.05
2022-09-10T19:19:53.866Z,87.18
2022-09-10T19:22:20.483Z,87.15
2022-09-10T19:24:55.741Z,87.55
2022-09-10T19:27:24.228Z,87.57
2022-09-10T19:29:50.801Z,87.88
2022-09-10T19:32:19.512Z,88.54
2022-09-10T19:34:46.297Z,88.54
2022-09-10T19:37:13.072Z,88.43
2022-09-10T19:39:39.638Z,88.67
2022-09-10T19:42:06.789Z,88.55
2022-09-10T19:44:34.021Z,88.40
2022-09-10T19:47:00.626Z,88.52
2022-09-10T19:49:27.009Z,88.65
2022-09-10T19:51:54.026Z,89.10
2022-09-10T19:54:21.370Z,89.67
2022-09-10T19:56:47.758Z,89.65
2022-09-10T19:59:14.578Z,89.32
2022-09-10T20:01:41.931Z,89.59
2022-09-10T20:04:10.716Z,89.83
2022-09-10T20:06:37.638Z,88.79
2022-09-10T20:09:05.591Z,88.79
2022-09-10T20:11:33.391Z,88.53
2022-09-10T20:14:03.376Z,88.74
2022-09-10T20:16:31.270Z,88.41
2022-09-10T20:18:58.045Z,88.13
2022-09-10T20:21:28.313Z,88.04
2022-09-10T20:23:56.258Z,88.54
2022-09-10T20:26:25.927Z,88.42
2022-09-10T20:28:55.649Z,88.44
2022-09-10T20:31:24.343Z,88.77
2022-09-10T20:33:56.374Z,89.17
2022-09-10T20:36:24.028Z,89.34
2022-09-10T20:38:51.973Z,89.90
2022-09-10T20:41:18.542Z,89.33
2022-09-10T20:43:49.824Z,89.49
2022-09-10T20:46:17.103Z,89.78
2022-09-10T20:48:49.457Z,89.66
2022-09-10T20:51:17.942Z,89.83
2022-09-10T20:53:44.984Z,90.26
2022-09-10T20:56:14.507Z,90.29
2022-09-10T20:58:41.403Z,90.17
2022-09-10T21:01:19.436Z,91.11
2022-09-10T21:03:47.915Z,90.51
2022-09-10T21:06:18.332Z,91.23
2022-09-10T21:08:47.134Z,90.97
2022-09-10T21:11:19.088Z,91.34
2022-09-10T21:13:50.809Z,92.22
2022-09-10T21:16:26.911Z,92.06
2022-09-10T21:18:58.589Z,92.87
2022-09-10T21:21:26.916Z,92.56
2022-09-10T21:23:58.892Z,93.40
2022-09-10T21:26:28.287Z,93.01
2022-09-10T21:28:56.858Z,93.48
2022-09-10T21:31:24.446Z,93.74
2022-09-10T21:33:51.334Z,94.48
2022-09-10T21:36:19.130Z,94.86
2022-09-10T21:38:50.214Z,95.56
2022-09-10T21:41:19.374Z,95.56
2022-09-10T21:43:47.503Z,95.92
2022-09-10T21:46:14.723Z,95.98
2022-09-10T21:48:42.406Z,96.39
2022-09-10T21:51:13.600Z,96.56
2022-09-10T21:53:41.189Z,96.58
2022-09-10T21:56:09.809Z,96.81
2022-09-10T21:58:36.974Z,96.48
2022-09-10T22:01:09.663Z,97.18
2022-09-10T22:03:36.359Z,96.34
2022-09-10T22:06:10.915Z,97.05
2022-09-10T22:08:39.889Z,96.35
2022-09-10T22:11:15.328Z,96.40
2022-09-10T22:13:45.705Z,95.15
2022-09-10T22:16:12.919Z,94.75
2022-09-10T22:18:39.847Z,94.29
2022-09-10T22:21:06.691Z,94.07
2022-09-10T22:23:38.096Z,94.34
2022-09-10T22:26:04.479Z,93.53
2022-09-10T22:28:34.876Z,93.48
2022-09-10T22:31:17.068Z,94.62
2022-09-10T22:33:45.331Z,93.13
2022-09-10T22:36:24.102Z,94.69
2022-09-10T22:38:53.310Z,93.50
2022-09-10T22:41:22.828Z,93.00
2022-09-10T22:43:50.182Z,93.07
2022-09-10T22:46:17.711Z,93.35
2022-09-10T22:48:45.457Z,93.32
2022-09-10T22:51:15.135Z,93.18
2022-09-10T22:53:42.876Z,92.78
2022-09-10T22:56:10.552Z,92.76
2022-09-10T22:58:37.075Z,92.94
2022-09-10T23:01:08.868Z,93.50
2022-09-10T23:03:35.857Z,93.35
2022-09-10T23:06:08.454Z,93.95
2022-09-10T23:08:36.353Z,94.23
2022-09-10T23:11:21.230Z,95.71
2022-09-10T23:13:50.406Z,95.01
2022-09-10T23:16:22.987Z,95.31
2022-09-10T23:18:51.675Z,95.31
2022-09-10T23:21:19.457Z,95.55
2022-09-10T23:23:57.048Z,95.83
2022-09-10T23:26:24.480Z,95.34
2022-09-10T23:28:51.493Z,95.32
2022-09-10T23:31:20.562Z,95.51
2022-09-10T23:33:54.364Z,95.81
2022-09-10T23:36:21.441Z,95.23
2022-09-10T23:38:47.966Z,95.59
2022-09-10T23:41:16.072Z,95.75
2022-09-10T23:43:43.830Z,96.35
2022-09-10T23:46:11.171Z,96.54
2022-09-10T23:48:38.217Z,96.75
2022-09-10T23:51:11.203Z,97.16
2022-09-10T23:53:38.176Z,97.18
2022-09-10T23:56:04.760Z,97.45
2022-09-10T23:58:31.880Z,97.51
